createdAt,value
2022-11-23T00:00:37.756Z,99226.22
2022-11-23T00:03:05.686Z,99219.16
2022-11-23T00:05:35.328Z,99213.38
2022-11-23T00:08:03.256Z,99229.22
2022-11-23T00:10:31.124Z,99221.88
2022-11-23T00:12:58.985Z,99220.78
2022-11-23T00:15:27.156Z,99223.75
2022-11-23T00:17:55.014Z,99218.31
2022-11-23T00:20:22.868Z,99231.09
2022-11-23T00:22:52.175Z,99225.66
2022-11-23T00:25:20.122Z,99225.66
2022-11-23T00:27:47.951Z,99226.78
2022-11-23T00:30:16.642Z,99228.66
2022-11-23T00:32:44.602Z,99226.78
2022-11-23T00:35:12.523Z,99235.72
2022-11-23T00:37:40.387Z,99237.38
2022-11-23T00:40:11.237Z,99239.56
2022-11-23T00:42:39.123Z,99243.88
2022-11-23T00:45:10.525Z,99247.72
2022-11-23T00:47:38.740Z,99245.81
2022-11-23T00:50:07.427Z,99243.88
2022-11-23T00:52:35.304Z,99248.53
2022-11-23T00:55:03.443Z,99243.34
2022-11-23T00:57:34.111Z,99253.16
2022-11-23T01:00:02.046Z,99249.59
2022-11-23T01:02:29.981Z,99249.59
2022-11-23T01:04:58.105Z,99246.56
2022-11-23T01:07:26.020Z,99258.59
2022-11-23T01:09:54.006Z,99261.31
2022-11-23T01:12:21.834Z,99257.78
2022-11-23T01:14:51.802Z,99270.53
2022-11-23T01:17:19.680Z,99270.53
2022-11-23T01:19:47.738Z,99267.84
2022-11-23T01:22:15.617Z,99274.91
2022-11-23T01:24:44.582Z,99235.00
2022-11-23T01:27:12.494Z,99278.72
2022-11-23T01:29:40.336Z,99284.16
2022-11-23T01:32:09.599Z,99284.97
2022-11-23T01:34:37.444Z,99283.06
2022-11-23T01:37:05.607Z,99279.53
2022-11-23T01:39:33.859Z,99295.03
2022-11-23T01:42:01.906Z,99293.38
2022-11-23T01:44:30.427Z,99274.00
2022-11-23T01:46:59.205Z,99292.31
2022-11-23T01:49:31.474Z,99296.94
2022-11-23T01:52:00.464Z,99287.69
2022-11-23T01:54:29.841Z,99293.38
2022-11-23T01:57:00.394Z,99292.31
2022-11-23T01:59:28.478Z,99296.09
2022-11-23T02:01:56.614Z,99286.75
2022-11-23T02:04:25.482Z,99293.63
2022-11-23T02:06:55.206Z,99305.09
2022-11-23T02:09:23.153Z,99300.72
2022-11-23T02:11:51.049Z,99299.66
2022-11-23T02:14:23.358Z,99299.91
2022-11-23T02:16:51.856Z,99304.28
2022-11-23T02:19:24.756Z,99299.91
2022-11-23T02:21:54.036Z,99307.00
2022-11-23T02:24:24.595Z,99288.91
2022-11-23T02:26:53.904Z,99308.06
2022-11-23T02:29:22.972Z,99311.84
2022-11-23T02:31:50.852Z,99304.28
2022-11-23T02:34:18.936Z,99314.31
2022-11-23T02:36:47.593Z,99294.91
2022-11-23T02:39:16.941Z,99215.16
2022-11-23T02:41:45.609Z,99311.59
2022-11-23T02:44:27.382Z,99307.25
2022-11-23T02:46:55.297Z,99314.31
2022-11-23T02:49:23.459Z,99316.22
2022-11-23T02:51:51.379Z,99311.84
2022-11-23T02:54:19.278Z,99303.69
2022-11-23T02:56:47.483Z,99301.81
2022-11-23T02:59:15.342Z,99321.66
2022-11-23T03:01:46.827Z,99291.34
2022-11-23T03:04:14.715Z,99312.69
2022-11-23T03:06:42.892Z,99312.69
2022-11-23T03:09:10.994Z,99320.84
2022-11-23T03:11:38.874Z,99321.66
2022-11-23T03:14:06.788Z,99323.56
2022-11-23T03:16:35.009Z,99327.09
2022-11-23T03:19:04.265Z,99332.53
2022-11-23T03:21:32.145Z,99324.66
2022-11-23T03:24:00.066Z,99329.00
2022-11-23T03:26:28.249Z,99329.81
2022-11-23T03:28:56.100Z,99333.38
2022-11-23T03:31:23.974Z,99314.47
2022-11-23T03:33:51.865Z,99293.44
2022-11-23T03:36:21.479Z,99330.91
2022-11-23T03:38:49.412Z,99327.94
2022-11-23T03:41:17.324Z,99327.09
2022-11-23T03:43:45.223Z,99329.00
2022-11-23T03:46:13.395Z,99324.38
2022-11-23T03:48:41.273Z,99332.00
2022-11-23T03:51:09.135Z,99325.47
2022-11-23T03:53:38.454Z,99323.56
2022-11-23T03:56:07.011Z,99325.47
2022-11-23T03:58:34.868Z,99306.31
2022-11-23T04:01:02.938Z,99318.41
2022-11-23T04:03:30.829Z,99312.06
2022-11-23T04:05:58.982Z,99317.56
2022-11-23T04:08:26.914Z,99319.22
2022-11-23T04:10:58.834Z,99318.03
2022-11-23T04:13:26.712Z,99335.78
2022-11-23T04:15:54.893Z,99329.53
2022-11-23T04:18:22.742Z,99331.19
2022-11-23T04:20:50.636Z,99331.19
2022-11-23T04:23:18.530Z,99327.38
2022-11-23T04:25:46.697Z,99327.38
2022-11-23T04:28:15.960Z,99318.41
2022-11-23T04:30:43.848Z,99323.03
2022-11-23T04:33:11.712Z,99321.94
2022-11-23T04:35:39.852Z,99319.16
2022-11-23T04:38:07.733Z,99327.63
2022-11-23T04:40:35.609Z,99319.22
2022-11-23T04:43:03.525Z,99315.28
2022-11-23T04:45:33.096Z,99321.94
2022-11-23T04:48:00.967Z,99338.28
2022-11-23T04:50:28.844Z,99326.56
2022-11-23T04:52:56.789Z,99330.09
2022-11-23T04:55:24.907Z,99324.66
2022-11-23T04:57:52.754Z,99333.63
2022-11-23T05:00:21.029Z,99339.88
2022-11-23T05:02:50.294Z,99334.44
2022-11-23T05:05:18.597Z,99339.88
2022-11-23T05:07:46.516Z,99337.16
2022-11-23T05:10:14.474Z,99330.91
2022-11-23T05:12:42.328Z,99339.88
2022-11-23T05:15:14.323Z,99341.78
2022-11-23T05:17:42.223Z,99309.25
2022-11-23T05:20:12.641Z,99342.59
2022-11-23T05:22:40.532Z,99346.16
2022-11-23T05:25:09.223Z,99342.59
2022-11-23T05:27:37.129Z,99342.59
2022-11-23T05:30:08.047Z,99346.97
2022-11-23T05:32:35.975Z,99348.88
2022-11-23T05:35:04.195Z,99348.03
2022-11-23T05:37:34.448Z,99333.00
2022-11-23T05:40:02.409Z,99347.78
2022-11-23T05:42:30.283Z,99350.50
2022-11-23T05:44:58.461Z,99352.16
2022-11-23T05:47:26.343Z,99349.69
2022-11-23T05:49:54.193Z,99359.50
2022-11-23T05:52:22.094Z,99350.50
2022-11-23T05:54:51.637Z,99356.78
2022-11-23T05:57:20.150Z,99359.50
2022-11-23T05:59:48.062Z,99346.94
2022-11-23T06:02:15.911Z,99360.31
2022-11-23T06:04:43.747Z,99361.16
2022-11-23T06:07:11.792Z,99363.59
2022-11-23T06:09:39.828Z,99355.72
2022-11-23T06:12:09.430Z,99297.69
2022-11-23T06:14:37.373Z,99352.69
2022-11-23T06:17:05.578Z,99353.81
2022-11-23T06:19:34.035Z,99352.69
2022-11-23T06:22:02.157Z,99354.34
2022-11-23T06:24:30.348Z,99339.00
2022-11-23T06:26:58.239Z,99358.97
2022-11-23T06:29:27.564Z,99356.25
2022-11-23T06:31:55.952Z,99362.50
2022-11-23T06:34:23.888Z,99344.22
2022-11-23T06:36:52.108Z,99350.50
2022-11-23T06:39:20.074Z,99346.47
2022-11-23T06:41:48.009Z,99352.97
2022-11-23T06:44:16.152Z,99358.44
2022-11-23T06:46:45.448Z,99354.88
2022-11-23T06:49:13.299Z,99356.53
2022-11-23T06:51:41.243Z,99351.34
2022-11-23T06:54:10.044Z,99329.13
2022-11-23T06:56:38.434Z,99361.16
2022-11-23T06:59:06.413Z,99359.50
2022-11-23T07:01:34.347Z,99356.78
2022-11-23T07:04:03.641Z,99363.88
2022-11-23T07:06:31.536Z,99364.94
2022-11-23T07:08:59.445Z,99369.31
2022-11-23T07:11:27.338Z,99363.03
2022-11-23T07:13:55.624Z,99369.31
2022-11-23T07:16:23.900Z,99364.94
2022-11-23T07:18:51.757Z,99370.13
2022-11-23T07:21:21.033Z,99372.84
2022-11-23T07:23:49.173Z,99366.53
2022-11-23T07:26:17.030Z,99371.22
2022-11-23T07:28:44.912Z,99375.56
2022-11-23T07:31:15.986Z,99375.56
2022-11-23T07:33:45.570Z,99390.00
2022-11-23T07:36:13.775Z,99385.34
2022-11-23T07:38:43.003Z,99394.63
2022-11-23T07:41:10.903Z,99395.69
2022-11-23T07:43:38.830Z,99407.41
2022-11-23T07:46:07.281Z,99408.47
2022-11-23T07:48:36.654Z,99411.19
2022-11-23T07:51:04.860Z,99381.03
2022-11-23T07:53:32.725Z,99416.38
2022-11-23T07:56:02.364Z,99420.16
2022-11-23T07:58:32.558Z,99420.16
2022-11-23T08:01:00.433Z,99416.63
2022-11-23T08:03:29.330Z,99430.22
2022-11-23T08:05:57.849Z,99419.59
2022-11-23T08:08:25.895Z,99430.22
2022-11-23T08:10:54.751Z,99431.88
2022-11-23T08:13:24.190Z,99414.59
2022-11-23T08:15:55.235Z,99432.69
2022-11-23T08:18:23.917Z,99416.25
2022-11-23T08:20:51.787Z,99433.78
2022-11-23T08:23:19.699Z,99441.94
2022-11-23T08:25:47.624Z,99428.59
2022-11-23T08:28:15.654Z,99435.41
2022-11-23T08:30:44.907Z,99435.41
2022-11-23T08:33:12.770Z,99429.97
2022-11-23T08:35:41.361Z,99423.31
2022-11-23T08:38:10.046Z,99429.41
2022-11-23T08:40:39.064Z,99435.41
2022-11-23T08:43:06.957Z,99440.03
2022-11-23T08:45:35.152Z,99446.31
2022-11-23T08:48:04.692Z,99449.84
2022-11-23T08:50:34.370Z,99448.19
2022-11-23T08:53:02.278Z,99454.47
2022-11-23T08:55:30.726Z,99454.47
2022-11-23T08:57:58.687Z,99450.94
2022-11-23T09:00:26.638Z,99453.63
2022-11-23T09:02:54.567Z,99453.63
2022-11-23T09:05:24.075Z,99441.94
2022-11-23T09:07:52.035Z,99449.84
2022-11-23T09:10:20.192Z,99455.28
2022-11-23T09:12:48.145Z,99457.19
2022-11-23T09:15:16.464Z,99457.44
2022-11-23T09:17:44.382Z,99462.88
2022-11-23T09:20:12.832Z,99461.81
2022-11-23T09:22:42.084Z,99343.78
2022-11-23T09:25:10.333Z,99455.53
2022-11-23T09:27:38.353Z,99462.88
2022-11-23T09:30:09.273Z,99457.44
2022-11-23T09:32:37.131Z,99462.88
2022-11-23T09:35:06.174Z,99462.63
2022-11-23T09:37:34.038Z,99430.34
2022-11-23T09:40:03.288Z,99455.50
2022-11-23T09:42:44.050Z,99475.41
2022-11-23T09:45:20.409Z,99474.34
2022-11-23T09:48:08.447Z,99463.66
2022-11-23T09:50:44.988Z,99466.19
2022-11-23T09:53:14.692Z,99407.81
2022-11-23T09:55:44.899Z,99446.75
2022-11-23T09:58:14.592Z,99467.78
2022-11-23T10:00:44.915Z,99464.25
2022-11-23T10:03:15.666Z,99468.63
2022-11-23T10:05:44.905Z,99467.78
2022-11-23T10:08:17.688Z,99442.34
2022-11-23T10:10:49.917Z,99364.38
2022-11-23T10:13:34.762Z,99451.47
2022-11-23T10:16:14.755Z,99450.94
2022-11-23T10:18:47.033Z,99452.28
2022-11-23T10:21:18.348Z,99448.75
2022-11-23T10:24:06.427Z,99426.75
2022-11-23T10:26:37.725Z,99407.38
2022-11-23T10:29:12.786Z,99451.47
2022-11-23T10:31:40.684Z,99456.91
2022-11-23T10:34:10.369Z,99443.31
2022-11-23T10:36:38.543Z,99446.84
2022-11-23T10:39:14.952Z,99439.22
2022-11-23T10:41:44.927Z,99438.69
2022-11-23T10:44:19.969Z,99429.44
2022-11-23T10:46:47.817Z,99416.06
2022-11-23T10:49:18.482Z,99416.91
2022-11-23T10:51:56.817Z,99421.53
2022-11-23T10:54:30.418Z,99391.50
2022-11-23T10:57:00.603Z,99396.19
2022-11-23T10:59:34.155Z,99402.50
2022-11-23T11:02:19.241Z,99396.22
2022-11-23T11:04:47.448Z,99388.06
2022-11-23T11:07:22.305Z,99379.91
2022-11-23T11:09:51.663Z,99369.03
2022-11-23T11:12:20.892Z,99340.28
2022-11-23T11:15:11.634Z,99360.06
2022-11-23T11:17:40.966Z,99349.31
2022-11-23T11:20:33.135Z,99363.59
2022-11-23T11:23:02.012Z,99357.34
2022-11-23T11:25:31.788Z,99222.03
2022-11-23T11:28:01.092Z,99338.03
2022-11-23T11:30:30.532Z,99297.53
2022-11-23T11:33:01.621Z,99356.00
2022-11-23T11:35:30.888Z,99354.09
2022-11-23T11:38:01.369Z,99243.09
2022-11-23T11:40:31.139Z,99352.19
2022-11-23T11:43:02.790Z,99352.19
2022-11-23T11:45:34.130Z,99356.00
2022-11-23T11:48:04.203Z,99359.28
2022-11-23T11:50:34.307Z,99353.84
2022-11-23T11:53:04.564Z,99353.84
2022-11-23T11:55:40.123Z,99353.84
2022-11-23T11:58:11.450Z,99341.03
2022-11-23T12:00:44.896Z,99354.91
2022-11-23T12:03:19.609Z,99349.47
2022-11-23T12:05:49.041Z,99349.47
2022-11-23T12:08:18.988Z,99343.47
2022-11-23T12:10:49.626Z,99346.75
2022-11-23T12:13:19.964Z,99342.16
2022-11-23T12:15:50.697Z,99345.69
2022-11-23T12:18:42.429Z,99178.63
2022-11-23T12:21:18.911Z,99342.97
2022-11-23T12:23:49.697Z,99342.97
2022-11-23T12:26:21.689Z,99257.94
2022-11-23T12:28:59.042Z,99336.69
2022-11-23T12:31:32.050Z,99337.53
2022-11-23T12:34:15.645Z,99299.75
2022-11-23T12:36:53.131Z,99314.84
2022-11-23T12:39:30.232Z,99270.28
2022-11-23T12:41:59.943Z,99333.97
2022-11-23T12:44:42.792Z,99247.59
2022-11-23T12:47:13.947Z,99323.91
2022-11-23T12:49:44.833Z,99312.22
2022-11-23T12:52:24.879Z,99299.16
2022-11-23T12:54:55.853Z,99300.25
2022-11-23T12:57:24.963Z,99175.59
2022-11-23T12:59:55.521Z,99290.19
2022-11-23T13:03:00.152Z,99283.13
2022-11-23T13:05:37.289Z,99255.44
2022-11-23T13:08:17.917Z,99242.88
2022-11-23T13:10:54.685Z,99277.66
2022-11-23T13:13:32.487Z,99258.28
2022-11-23T13:16:22.474Z,99219.97
2022-11-23T13:19:01.540Z,99271.69
2022-11-23T13:21:35.239Z,99268.16
2022-11-23T13:24:03.156Z,99263.78
2022-11-23T13:26:31.629Z,99266.50
2022-11-23T13:29:01.432Z,99274.94
2022-11-23T13:31:31.654Z,99270.00
2022-11-23T13:34:00.294Z,99272.22
2022-11-23T13:40:03.725Z,99262.44
2022-11-23T13:42:34.220Z,99259.69
2022-11-23T13:45:25.124Z,99263.50
2022-11-23T13:51:06.618Z,99264.56
2022-11-23T13:53:35.401Z,99259.13
2022-11-23T13:56:19.296Z,99255.59
2022-11-23T13:58:54.695Z,99192.53
2022-11-23T14:01:59.623Z,99252.63
2022-11-23T14:04:29.409Z,99243.09
2022-11-23T14:06:59.066Z,99243.88
2022-11-23T14:09:29.540Z,99238.72
2022-11-23T14:12:13.605Z,99236.25
2022-11-23T14:14:51.671Z,99241.16
2022-11-23T14:17:38.067Z,99226.41
2022-11-23T14:20:31.813Z,99239.28
2022-11-23T14:23:13.852Z,99241.16
2022-11-23T14:25:46.510Z,99206.72
2022-11-23T14:28:23.086Z,99249.31
2022-11-23T14:30:59.751Z,99241.97
2022-11-23T14:33:30.690Z,99196.09
2022-11-23T14:36:06.614Z,99240.09
2022-11-23T14:38:43.751Z,99206.16
2022-11-23T14:41:14.199Z,99237.09
2022-11-23T14:43:43.322Z,99247.44
2022-11-23T14:46:15.931Z,99242.81
2022-11-23T14:48:43.824Z,99253.97
2022-11-23T14:51:14.591Z,99251.50
2022-11-23T14:53:46.868Z,99256.69
2022-11-23T14:56:23.588Z,99272.72
2022-11-23T14:58:51.497Z,99275.75
2022-11-23T15:01:21.837Z,99282.78
2022-11-23T15:03:57.431Z,99287.41
2022-11-23T15:06:28.907Z,99285.50
2022-11-23T15:09:02.446Z,99290.97
2022-11-23T15:11:30.397Z,99281.06
2022-11-23T15:14:03.231Z,99306.47
2022-11-23T15:16:33.566Z,99311.91
2022-11-23T15:19:01.540Z,99321.97
2022-11-23T15:21:30.827Z,99322.78
2022-11-23T15:24:00.030Z,99319.16
2022-11-23T15:26:47.529Z,99330.94
2022-11-23T15:29:33.650Z,99335.59
2022-11-23T15:34:50.243Z,99355.72
2022-11-23T15:37:19.710Z,99363.03
2022-11-23T15:39:47.852Z,99369.31
2022-11-23T15:42:16.770Z,99374.75
2022-11-23T15:44:50.336Z,99382.91
2022-11-23T15:47:20.976Z,99386.44
2022-11-23T15:49:48.906Z,99340.41
2022-11-23T15:52:17.649Z,99400.88
2022-11-23T15:54:46.912Z,99379.78
2022-11-23T15:57:20.685Z,99349.13
2022-11-23T15:59:49.094Z,99403.59
2022-11-23T16:02:18.311Z,99418.81
2022-11-23T16:04:46.261Z,99416.91
2022-11-23T16:07:19.082Z,99418.81
2022-11-23T16:09:51.611Z,99423.44
2022-11-23T16:12:26.678Z,99437.03
2022-11-23T16:14:55.120Z,99440.59
2022-11-23T16:17:24.190Z,99448.75
2022-11-23T16:19:52.443Z,99450.63
2022-11-23T16:22:29.322Z,99455.00
2022-11-23T16:25:02.795Z,99452.28
2022-11-23T16:27:30.687Z,99459.63
2022-11-23T16:30:02.807Z,99455.00
2022-11-23T16:32:32.215Z,99458.81
2022-11-23T16:35:09.846Z,99457.72
2022-11-23T16:37:37.785Z,99465.91
2022-11-23T16:40:08.555Z,99470.25
2022-11-23T16:42:36.397Z,99471.09
2022-11-23T16:45:05.052Z,99467.53
2022-11-23T16:47:32.926Z,99441.13
2022-11-23T16:50:00.873Z,99494.75
2022-11-23T16:52:28.729Z,99490.13
2022-11-23T16:54:56.934Z,99472.56
2022-11-23T16:57:29.196Z,99501.84
2022-11-23T16:59:57.262Z,99501.84
2022-11-23T17:02:25.204Z,99496.66
2022-11-23T17:04:53.687Z,99486.00
2022-11-23T17:07:21.688Z,99477.25
2022-11-23T17:09:49.660Z,99489.56
2022-11-23T17:12:18.977Z,99483.97
2022-11-23T17:14:49.111Z,99497.72
2022-11-23T17:17:19.714Z,99509.13
2022-11-23T17:19:49.542Z,99505.75
2022-11-23T17:22:17.821Z,99526.81
2022-11-23T17:24:46.083Z,99526.81
2022-11-23T17:27:14.785Z,99524.09
2022-11-23T17:29:43.150Z,99499.94
2022-11-23T17:32:13.636Z,99488.63
2022-11-23T17:34:41.680Z,99532.25
2022-11-23T17:37:11.830Z,99544.78
2022-11-23T17:39:39.750Z,99498.75
2022-11-23T17:42:07.702Z,99492.16
2022-11-23T17:44:35.575Z,99551.06
2022-11-23T17:47:03.806Z,99558.41
2022-11-23T17:49:33.424Z,99566.56
2022-11-23T17:52:01.557Z,99564.91
2022-11-23T17:54:29.420Z,99543.59
2022-11-23T17:56:57.775Z,99555.69
2022-11-23T17:59:25.720Z,99546.31
2022-11-23T18:01:53.653Z,99567.38
2022-11-23T18:04:21.575Z,99566.56
2022-11-23T18:06:51.120Z,99563.84
2022-11-23T18:09:19.035Z,99558.66
2022-11-23T18:11:46.872Z,99552.91
2022-11-23T18:14:14.726Z,99569.28
2022-11-23T18:16:42.999Z,99572.81
2022-11-23T18:19:10.949Z,99561.34
2022-11-23T18:21:39.054Z,99575.78
2022-11-23T18:24:09.278Z,99578.28
2022-11-23T18:26:37.238Z,99585.59
2022-11-23T18:29:05.063Z,99587.25
2022-11-23T18:31:33.022Z,99567.47
2022-11-23T18:34:02.749Z,99577.66
2022-11-23T18:36:30.619Z,99586.69
2022-11-23T18:38:58.819Z,99600.28
2022-11-23T18:41:28.135Z,99593.97
2022-11-23T18:43:56.037Z,99601.63
2022-11-23T18:46:24.306Z,99544.50
2022-11-23T18:48:53.495Z,99529.41
2022-11-23T18:51:21.579Z,99611.16
2022-11-23T18:53:50.982Z,99611.09
2022-11-23T18:56:19.319Z,99619.31
2022-11-23T18:58:48.691Z,99631.84
2022-11-23T19:01:17.771Z,99633.19
2022-11-23T19:03:46.158Z,99637.56
2022-11-23T19:06:14.369Z,99633.44
2022-11-23T19:08:42.603Z,99643.00
2022-11-23T19:11:15.831Z,99648.47
2022-11-23T19:13:43.732Z,99653.91
2022-11-23T19:16:16.060Z,99550.44
2022-11-23T19:18:44.156Z,99647.63
2022-11-23T19:21:16.309Z,99656.63
2022-11-23T19:23:44.237Z,99665.56
2022-11-23T19:26:12.218Z,99655.78
2022-11-23T19:28:44.552Z,99672.13
2022-11-23T19:31:14.648Z,99668.00
2022-11-23T19:33:43.131Z,99666.69
2022-11-23T19:36:12.125Z,99677.56
2022-11-23T19:38:40.014Z,99669.13
2022-11-23T19:41:07.913Z,99678.38
2022-11-23T19:43:35.797Z,99683.00
2022-11-23T19:46:04.858Z,99680.22
2022-11-23T19:48:34.560Z,99700.16
2022-11-23T19:51:03.608Z,99704.75
2022-11-23T19:53:31.622Z,99700.41
2022-11-23T19:56:03.587Z,99710.44
2022-11-23T19:58:32.379Z,99714.56
2022-11-23T20:01:01.102Z,99717.28
2022-11-23T20:03:29.023Z,99714.56
2022-11-23T20:05:59.521Z,99728.97
2022-11-23T20:08:28.052Z,99734.41
2022-11-23T20:10:56.096Z,99734.19
2022-11-23T20:13:23.981Z,99741.50
2022-11-23T20:15:52.924Z,99740.44
2022-11-23T20:18:23.462Z,99742.34
2022-11-23T20:20:55.689Z,99745.31
2022-11-23T20:23:25.034Z,99753.22
2022-11-23T20:25:54.346Z,99753.22
2022-11-23T20:28:22.450Z,99757.84
2022-11-23T20:30:50.957Z,99761.38
2022-11-23T20:33:19.514Z,99757.84
2022-11-23T20:35:47.775Z,99758.34
2022-11-23T20:38:17.424Z,99766.00
2022-11-23T20:40:46.697Z,99764.63
2022-11-23T20:43:14.564Z,99754.16
2022-11-23T20:45:42.714Z,99763.78
2022-11-23T20:48:10.730Z,99767.91
2022-11-23T20:50:38.623Z,99754.97
2022-11-23T20:53:06.509Z,99772.50
2022-11-23T20:55:34.716Z,99723.56
2022-11-23T20:58:04.053Z,99776.34
2022-11-23T21:00:32.084Z,99786.13
2022-11-23T21:03:00.122Z,99783.41
2022-11-23T21:05:28.656Z,99788.84
2022-11-23T21:07:56.905Z,99781.69
2022-11-23T21:10:42.398Z,99791.56
2022-11-23T21:13:48.586Z,99775.56
2022-11-23T21:16:17.342Z,99804.59
2022-11-23T21:18:45.328Z,99802.97
2022-11-23T21:21:13.341Z,99803.78
2022-11-23T21:23:41.282Z,99801.06
2022-11-23T21:26:09.449Z,99812.78
2022-11-23T21:28:38.730Z,99816.31
2022-11-23T21:31:08.764Z,99812.78
2022-11-23T21:33:37.299Z,99792.63
2022-11-23T21:36:06.261Z,99822.81
2022-11-23T21:38:35.133Z,99831.00
2022-11-23T21:41:03.305Z,99823.66
2022-11-23T21:43:31.644Z,99817.31
2022-11-23T21:46:01.845Z,99822.81
2022-11-23T21:48:29.730Z,99829.91
2022-11-23T21:51:01.575Z,99837.25
2022-11-23T21:53:29.969Z,99834.53
2022-11-23T21:56:01.716Z,99844.34
2022-11-23T21:58:29.734Z,99838.91
2022-11-23T22:01:05.582Z,99839.97
2022-11-23T22:03:36.655Z,99848.97
2022-11-23T22:06:04.814Z,99846.25
2022-11-23T22:08:32.924Z,99842.84
2022-11-23T22:11:01.014Z,99860.91
2022-11-23T22:13:34.000Z,99864.47
2022-11-23T22:16:17.373Z,99842.88
2022-11-23T22:18:45.501Z,99877.25
2022-11-23T22:21:13.453Z,99869.91
2022-11-23T22:23:41.503Z,99877.25
2022-11-23T22:26:10.470Z,99875.34
2022-11-23T22:28:39.134Z,99880.78
2022-11-23T22:31:07.468Z,99882.69
2022-11-23T22:33:36.897Z,99896.28
2022-11-23T22:36:06.198Z,99891.69
2022-11-23T22:38:34.255Z,99888.38
2022-11-23T22:41:02.351Z,99899.84
2022-11-23T22:43:30.569Z,99909.91
2022-11-23T22:46:05.400Z,99912.63
2022-11-23T22:48:33.853Z,99895.84
2022-11-23T22:51:03.247Z,99917.81
2022-11-23T22:53:31.245Z,99915.09
2022-11-23T22:56:01.141Z,99922.16
2022-11-23T22:58:29.209Z,99923.25
2022-11-23T23:00:57.500Z,99923.50
2022-11-23T23:03:25.522Z,99920.78
2022-11-23T23:05:57.277Z,99930.00
2022-11-23T23:08:27.106Z,99931.66
2022-11-23T23:10:55.169Z,99923.50
2022-11-23T23:13:23.288Z,99936.28
2022-11-23T23:16:00.676Z,99941.94
2022-11-23T23:18:28.744Z,99939.22
2022-11-23T23:21:01.992Z,99947.16
2022-11-23T23:23:31.527Z,99942.78
2022-11-23T23:25:59.576Z,99937.00
2022-11-23T23:28:27.568Z,99946.91
2022-11-23T23:31:00.853Z,99928.97
2022-11-23T23:33:29.710Z,99941.84
2022-11-23T23:35:57.996Z,99939.13
2022-11-23T23:38:27.968Z,99962.97
2022-11-23T23:40:57.591Z,99962.97
2022-11-23T23:43:25.635Z,99970.31
2022-11-23T23:45:54.492Z,99973.88
2022-11-23T23:48:22.495Z,99968.41
2022-11-23T23:50:50.582Z,99982.03
2022-11-23T23:53:18.586Z,99982.03
2022-11-23T23:55:58.243Z,99972.94
2022-11-23T23:58:26.327Z,99985.56
